createdAt,value
2022-10-02T00:02:18.252Z,101412.00
2022-10-02T00:05:03.715Z,101417.66
2022-10-02T00:07:56.022Z,101429.41
2022-10-02T00:10:39.295Z,101436.94
2022-10-02T00:13:08.706Z,101441.38
2022-10-02T00:15:42.045Z,101447.53
2022-10-02T00:18:14.943Z,101452.97
2022-10-02T00:21:08.840Z,101456.56
2022-10-02T00:23:46.310Z,101447.53
2022-10-02T00:26:23.239Z,101440.53
2022-10-02T00:29:11.538Z,101442.41
2022-10-02T00:31:47.661Z,101451.63
2022-10-02T00:35:11.830Z,101456.25
2022-10-02T00:38:16.766Z,101468.88
2022-10-02T00:41:10.356Z,101475.53
2022-10-02T00:44:04.874Z,101466.66
2022-10-02T00:46:38.021Z,101447.69
2022-10-02T00:49:21.176Z,101462.38
2022-10-02T00:52:16.092Z,101454.34
2022-10-02T00:55:07.705Z,101461.88
2022-10-02T00:57:43.490Z,101473.16
2022-10-02T01:00:14.751Z,101477.91
2022-10-02T01:03:08.888Z,101483.91
2022-10-02T01:05:36.113Z,101484.06
2022-10-02T01:08:03.076Z,101492.75
2022-10-02T01:10:30.072Z,101479.63
2022-10-02T01:12:58.210Z,101469.22
2022-10-02T01:15:31.096Z,101465.78
2022-10-02T01:17:58.403Z,101476.22
2022-10-02T01:20:35.690Z,101470.94
2022-10-02T01:23:18.116Z,101467.31
2022-10-02T01:25:45.483Z,101479.25
2022-10-02T01:28:12.791Z,101491.41
2022-10-02T01:30:43.207Z,101508.78
2022-10-02T01:33:12.611Z,101501.78
2022-10-02T01:35:40.196Z,101502.78
2022-10-02T01:38:11.084Z,101515.78
2022-10-02T01:40:40.140Z,101520.53
2022-10-02T01:43:17.524Z,101517.28
2022-10-02T01:45:58.571Z,101519.50
2022-10-02T01:48:42.066Z,101528.84
2022-10-02T01:51:30.244Z,101535.66
2022-10-02T01:54:18.310Z,101551.53
2022-10-02T01:57:01.395Z,101547.25
2022-10-02T01:59:37.122Z,101547.38
2022-10-02T02:02:24.931Z,101555.03
2022-10-02T02:05:18.847Z,101562.38
2022-10-02T02:08:03.565Z,101558.63
2022-10-02T02:10:46.574Z,101564.41
2022-10-02T02:13:33.986Z,101548.38
2022-10-02T02:16:10.679Z,101553.16
2022-10-02T02:18:50.652Z,101559.78
2022-10-02T02:21:28.749Z,101557.22
2022-10-02T02:23:57.929Z,101543.91
2022-10-02T02:26:25.857Z,101553.09
2022-10-02T02:28:58.353Z,101563.47
2022-10-02T02:31:31.131Z,101559.91
2022-10-02T02:34:01.015Z,101573.00
2022-10-02T02:36:35.698Z,101575.88
2022-10-02T02:39:10.830Z,101563.59
2022-10-02T02:41:55.919Z,101559.47
2022-10-02T02:44:28.725Z,101574.28
2022-10-02T02:47:04.287Z,101580.94
2022-10-02T02:49:59.617Z,101590.13
2022-10-02T02:52:33.522Z,101603.28
2022-10-02T02:55:20.251Z,101603.81
2022-10-02T02:57:57.365Z,101605.22
2022-10-02T03:00:25.501Z,101606.06
2022-10-02T03:02:54.647Z,101608.63
2022-10-02T03:05:24.268Z,101605.88
2022-10-02T03:08:00.124Z,101598.88
2022-10-02T03:10:29.847Z,101600.06
2022-10-02T03:13:18.117Z,101615.56
2022-10-02T03:16:22.102Z,101612.16
2022-10-02T03:19:16.282Z,101617.06
2022-10-02T03:21:54.878Z,101615.69
2022-10-02T03:24:39.615Z,101625.19
2022-10-02T03:27:15.641Z,101614.94
2022-10-02T03:30:00.129Z,101621.00
2022-10-02T03:32:28.312Z,101628.84
2022-10-02T03:34:57.221Z,101630.28
2022-10-02T03:37:25.904Z,101633.50
2022-10-02T03:39:52.928Z,101632.09
2022-10-02T03:42:26.290Z,101641.59
2022-10-02T03:44:52.962Z,101637.47
2022-10-02T03:47:19.555Z,101641.38
2022-10-02T03:49:46.729Z,101648.00
2022-10-02T03:52:16.956Z,101651.75
2022-10-02T03:54:44.322Z,101661.06
2022-10-02T03:57:22.982Z,101665.84
2022-10-02T04:00:03.862Z,101667.00
2022-10-02T04:02:37.639Z,101683.63
2022-10-02T04:05:26.016Z,101687.38
2022-10-02T04:07:57.504Z,101699.28
2022-10-02T04:10:54.887Z,101708.31
2022-10-02T04:13:35.425Z,101701.44
2022-10-02T04:16:14.545Z,101713.38
2022-10-02T04:18:57.402Z,101707.06
2022-10-02T04:21:58.803Z,101703.78
2022-10-02T04:24:31.896Z,101715.00
2022-10-02T04:27:17.517Z,101715.28
2022-10-02T04:29:51.811Z,101716.44
2022-10-02T04:32:27.642Z,101732.66
2022-10-02T04:34:54.855Z,101726.75
2022-10-02T04:37:32.953Z,101712.34
2022-10-02T04:40:39.152Z,101718.03
2022-10-02T04:43:24.048Z,101719.28
2022-10-02T04:46:09.824Z,101713.69
2022-10-02T04:48:56.753Z,101723.56
2022-10-02T04:52:01.109Z,101727.19
2022-10-02T04:54:30.728Z,101726.13
2022-10-02T04:57:02.261Z,101727.00
2022-10-02T04:59:38.049Z,101738.59
2022-10-02T05:02:27.360Z,101741.31
2022-10-02T05:05:12.586Z,101733.16
2022-10-02T05:08:06.079Z,101747.78
2022-10-02T05:11:14.474Z,101753.38
2022-10-02T05:13:55.825Z,101755.25
2022-10-02T05:16:42.788Z,101767.31
2022-10-02T05:19:33.685Z,101777.66
2022-10-02T05:22:12.212Z,101782.00
2022-10-02T05:25:00.350Z,101784.34
2022-10-02T05:27:50.282Z,101798.69
2022-10-02T05:30:19.528Z,101796.59
2022-10-02T05:33:04.746Z,101804.50
2022-10-02T05:36:00.710Z,101811.41
2022-10-02T05:38:39.159Z,101826.16
2022-10-02T05:41:18.122Z,101822.88
2022-10-02T05:44:02.696Z,101831.47
2022-10-02T05:46:42.391Z,101830.91
2022-10-02T05:49:16.592Z,101833.78
2022-10-02T05:51:59.440Z,101824.94
2022-10-02T05:54:47.485Z,101835.03
2022-10-02T05:57:32.062Z,101845.25
2022-10-02T06:00:24.890Z,101845.38
2022-10-02T06:03:00.509Z,101852.41
2022-10-02T06:05:35.657Z,101868.47
2022-10-02T06:08:05.917Z,101859.00
2022-10-02T06:10:41.016Z,101862.44
2022-10-02T06:13:46.365Z,101859.84
2022-10-02T06:16:28.726Z,101865.88
2022-10-02T06:19:01.777Z,101875.03
2022-10-02T06:21:52.063Z,101883.19
2022-10-02T06:24:34.687Z,101890.06
2022-10-02T06:27:10.217Z,101896.09
2022-10-02T06:29:43.911Z,101893.91
2022-10-02T06:32:22.532Z,101893.63
2022-10-02T06:34:50.316Z,101900.47
2022-10-02T06:37:26.345Z,101892.16
2022-10-02T06:40:18.716Z,101907.34
2022-10-02T06:43:27.271Z,101909.78
2022-10-02T06:46:08.693Z,101913.91
2022-10-02T06:49:06.506Z,101916.53
2022-10-02T06:52:02.087Z,101929.69
2022-10-02T06:54:50.500Z,101933.69
2022-10-02T06:57:48.754Z,101942.28
2022-10-02T07:00:21.413Z,101950.84
2022-10-02T07:03:29.861Z,101946.81
2022-10-02T07:06:14.623Z,101951.09
2022-10-02T07:09:04.547Z,101960.00
2022-10-02T07:11:49.618Z,101965.16
2022-10-02T07:14:54.859Z,101967.56
2022-10-02T07:17:59.146Z,101980.06
2022-10-02T07:20:30.097Z,101982.31
2022-10-02T07:23:10.041Z,101980.84
2022-10-02T07:25:39.906Z,101987.88
2022-10-02T07:28:17.709Z,101989.75
2022-10-02T07:31:08.410Z,101992.88
2022-10-02T07:34:08.215Z,101997.19
2022-10-02T07:36:53.200Z,102004.66
2022-10-02T07:39:31.471Z,102008.38
2022-10-02T07:42:12.274Z,102011.97
2022-10-02T07:45:16.558Z,102018.69
2022-10-02T07:48:00.465Z,102019.97
2022-10-02T07:50:33.024Z,102019.22
2022-10-02T07:53:05.866Z,102028.44
2022-10-02T07:55:33.838Z,102025.59
2022-10-02T07:58:06.318Z,102022.34
2022-10-02T08:00:40.614Z,102024.22
2022-10-02T08:03:13.030Z,102018.06
2022-10-02T08:05:44.682Z,102026.09
2022-10-02T08:08:17.455Z,102031.88
2022-10-02T08:10:47.641Z,102036.75
2022-10-02T08:13:20.695Z,102036.44
2022-10-02T08:15:54.452Z,102038.47
2022-10-02T08:18:34.756Z,102040.50
2022-10-02T08:21:05.505Z,102058.75
2022-10-02T08:23:45.203Z,102056.59
2022-10-02T08:26:37.315Z,102066.13
2022-10-02T08:29:10.150Z,102061.28
2022-10-02T08:31:37.194Z,102073.53
2022-10-02T08:34:19.250Z,102068.56
2022-10-02T08:36:51.795Z,102087.72
2022-10-02T08:39:50.725Z,102086.47
2022-10-02T08:42:45.630Z,102073.03
2022-10-02T08:45:27.497Z,102082.78
2022-10-02T08:48:06.432Z,102087.50
2022-10-02T08:50:48.396Z,102096.31
2022-10-02T08:53:29.974Z,102100.13
2022-10-02T08:56:03.364Z,102107.13
2022-10-02T08:58:49.987Z,102103.75
2022-10-02T09:01:25.707Z,102112.34
2022-10-02T09:04:28.526Z,102122.28
2022-10-02T09:07:17.173Z,102128.50
2022-10-02T09:09:53.951Z,102142.91
2022-10-02T09:12:42.154Z,102146.53
2022-10-02T09:15:39.246Z,102151.88
2022-10-02T09:18:42.738Z,102153.28
2022-10-02T09:21:11.593Z,102152.94
2022-10-02T09:24:27.727Z,102158.78
2022-10-02T09:27:12.520Z,102156.38
2022-10-02T09:30:10.286Z,102171.47
2022-10-02T09:32:49.664Z,102172.63
2022-10-02T09:35:33.182Z,102181.53
2022-10-02T09:38:30.159Z,102187.88
2022-10-02T09:41:28.030Z,102190.47
2022-10-02T09:44:19.774Z,102193.22
2022-10-02T09:47:21.558Z,102200.44
2022-10-02T09:50:06.739Z,102200.78
2022-10-02T09:52:54.113Z,102200.25
2022-10-02T09:55:43.031Z,102208.16
2022-10-02T09:58:28.376Z,102216.22
2022-10-02T10:01:07.249Z,102221.19
2022-10-02T10:03:52.712Z,102223.06
2022-10-02T10:06:28.833Z,102232.84
2022-10-02T10:09:08.925Z,102232.84
2022-10-02T10:11:56.627Z,102229.59
2022-10-02T10:14:56.695Z,102228.75
2022-10-02T10:17:39.358Z,102228.81
2022-10-02T10:20:43.607Z,102235.44
2022-10-02T10:23:25.656Z,102227.66
2022-10-02T10:26:53.972Z,102240.09
2022-10-02T10:29:58.133Z,102236.34
2022-10-02T10:32:42.561Z,102256.91
2022-10-02T10:35:38.832Z,102246.84
2022-10-02T10:38:51.451Z,102257.81
2022-10-02T10:41:39.935Z,102262.41
2022-10-02T10:44:39.518Z,102268.63
2022-10-02T10:47:23.964Z,102276.41
2022-10-02T10:50:04.498Z,102274.25
2022-10-02T10:53:04.508Z,102269.94
2022-10-02T10:56:18.261Z,102273.44
2022-10-02T10:59:16.759Z,102266.91
2022-10-02T11:02:00.914Z,102281.69
2022-10-02T11:04:59.087Z,102287.50
2022-10-02T11:07:41.240Z,102286.94
2022-10-02T11:10:31.235Z,102293.19
2022-10-02T11:13:10.017Z,102284.84
2022-10-02T11:15:39.917Z,102301.53
2022-10-02T11:18:24.579Z,102298.16
2022-10-02T11:21:10.871Z,102301.22
2022-10-02T11:23:59.052Z,102303.84
2022-10-02T11:26:34.984Z,102298.44
2022-10-02T11:29:25.910Z,102295.97
2022-10-02T11:32:26.630Z,102289.63
2022-10-02T11:35:21.218Z,102282.53
2022-10-02T11:38:09.890Z,102284.72
2022-10-02T11:41:14.296Z,102288.81
2022-10-02T11:44:09.186Z,102280.19
2022-10-02T11:46:53.971Z,102275.91
2022-10-02T11:49:34.758Z,102280.06
2022-10-02T11:52:30.263Z,102285.69
2022-10-02T11:55:11.548Z,102281.56
2022-10-02T11:57:45.796Z,102290.06
2022-10-02T12:00:34.535Z,102299.75
2022-10-02T12:03:17.095Z,102294.19
2022-10-02T12:06:03.247Z,102297.25
2022-10-02T12:08:49.338Z,102302.47
2022-10-02T12:11:23.418Z,102304.91
2022-10-02T12:14:09.696Z,102312.53
2022-10-02T12:16:45.698Z,102308.00
2022-10-02T12:19:38.878Z,102309.59
2022-10-02T12:22:43.070Z,102305.09
2022-10-02T12:26:01.210Z,102307.44
2022-10-02T12:28:46.645Z,102310.31
2022-10-02T12:31:45.635Z,102312.91
2022-10-02T12:34:40.339Z,102319.84
2022-10-02T12:37:20.831Z,102313.84
2022-10-02T12:39:59.573Z,102323.63
2022-10-02T12:42:35.311Z,102328.88
2022-10-02T12:45:21.877Z,102312.31
2022-10-02T12:47:58.510Z,102308.84
2022-10-02T12:50:53.812Z,102302.47
2022-10-02T12:53:20.402Z,102308.13
2022-10-02T12:56:25.684Z,102313.84
2022-10-02T12:59:11.404Z,102305.34
2022-10-02T13:02:59.723Z,102320.09
2022-10-02T13:05:55.389Z,102318.44
2022-10-02T13:09:08.158Z,102334.28
2022-10-02T13:12:07.020Z,102316.31
2022-10-02T13:15:02.138Z,102331.00
2022-10-02T13:17:31.880Z,102330.69
2022-10-02T13:20:28.638Z,102324.16
2022-10-02T13:23:25.513Z,102338.50
2022-10-02T13:26:26.678Z,102345.84
2022-10-02T13:29:14.739Z,102351.38
2022-10-02T13:32:06.381Z,102344.31
2022-10-02T13:35:04.310Z,102341.34
2022-10-02T13:37:54.154Z,102336.94
2022-10-02T13:40:26.853Z,102339.22
2022-10-02T13:43:38.662Z,102356.22
2022-10-02T13:46:08.513Z,102358.69
2022-10-02T13:48:40.833Z,102355.31
2022-10-02T13:51:15.699Z,102364.47
2022-10-02T13:54:14.701Z,102347.56
2022-10-02T13:56:52.083Z,102337.84
2022-10-02T13:59:33.830Z,102339.34
2022-10-02T14:02:15.219Z,102341.13
2022-10-02T14:04:47.642Z,102352.53
2022-10-02T14:07:26.386Z,102351.75
2022-10-02T14:10:28.710Z,102348.50
2022-10-02T14:13:12.147Z,102352.44
2022-10-02T14:15:57.481Z,102356.50
2022-10-02T14:19:01.145Z,102358.56
2022-10-02T14:21:51.156Z,102355.22
2022-10-02T14:25:03.901Z,102365.03
2022-10-02T14:28:02.452Z,102364.34
2022-10-02T14:30:52.908Z,102374.81
2022-10-02T14:33:38.468Z,102378.41
2022-10-02T14:36:13.935Z,102378.41
2022-10-02T14:39:05.162Z,102382.78
2022-10-02T14:42:09.661Z,102377.34
2022-10-02T14:44:46.131Z,102377.91
2022-10-02T14:47:15.422Z,102379.72
2022-10-02T14:50:16.759Z,102391.28
2022-10-02T14:53:13.084Z,102397.72
2022-10-02T14:55:58.215Z,102395.50
2022-10-02T14:59:02.374Z,102413.31
2022-10-02T15:01:30.037Z,102406.28
2022-10-02T15:04:31.907Z,102400.06
2022-10-02T15:07:08.148Z,102409.94
2022-10-02T15:10:09.709Z,102402.88
2022-10-02T15:12:36.572Z,102404.22
2022-10-02T15:15:16.421Z,102402.34
2022-10-02T15:18:20.304Z,102404.91
2022-10-02T15:20:59.739Z,102400.94
2022-10-02T15:23:45.392Z,102401.78
2022-10-02T15:26:14.732Z,102406.91
2022-10-02T15:29:05.976Z,102409.09
2022-10-02T15:31:44.380Z,102416.13
2022-10-02T15:34:20.000Z,102411.00
2022-10-02T15:37:00.642Z,102409.00
2022-10-02T15:39:46.903Z,102411.06
2022-10-02T15:42:27.672Z,102420.56
2022-10-02T15:45:13.713Z,102425.06
2022-10-02T15:48:06.768Z,102422.59
2022-10-02T15:50:36.473Z,102423.88
2022-10-02T15:53:05.704Z,102432.28
2022-10-02T15:55:42.636Z,102435.13
2022-10-02T15:58:19.531Z,102443.72
2022-10-02T16:01:09.370Z,102440.84
2022-10-02T16:03:53.621Z,102444.63
2022-10-02T16:06:39.283Z,102437.59
2022-10-02T16:09:37.135Z,102441.34
2022-10-02T16:12:31.985Z,102444.06
2022-10-02T16:15:13.227Z,102457.16
2022-10-02T16:17:59.527Z,102459.22
2022-10-02T16:20:26.187Z,102467.00
2022-10-02T16:23:25.333Z,102465.69
2022-10-02T16:26:15.702Z,102463.78
2022-10-02T16:28:54.871Z,102484.09
2022-10-02T16:31:43.077Z,102472.25
2022-10-02T16:34:37.295Z,102476.22
2022-10-02T16:37:19.043Z,102477.59
2022-10-02T16:39:54.769Z,102481.41
2022-10-02T16:42:50.905Z,102488.47
2022-10-02T16:45:40.692Z,102491.50
2022-10-02T16:48:17.954Z,102490.66
2022-10-02T16:50:53.441Z,102488.25
2022-10-02T16:53:37.190Z,102482.94
2022-10-02T16:56:21.240Z,102482.25
2022-10-02T16:59:01.775Z,102488.63
2022-10-02T17:01:53.356Z,102498.91
2022-10-02T17:05:13.151Z,102500.81
2022-10-02T17:08:07.672Z,102507.72
2022-10-02T17:10:46.474Z,102508.22
2022-10-02T17:13:29.525Z,102519.91
2022-10-02T17:16:09.198Z,102518.69
2022-10-02T17:19:00.216Z,102524.53
2022-10-02T17:21:39.263Z,102521.09
2022-10-02T17:24:50.572Z,102526.25
2022-10-02T17:27:35.537Z,102522.31
2022-10-02T17:30:24.573Z,102531.91
2022-10-02T17:33:13.748Z,102524.69
2022-10-02T17:35:46.535Z,102529.34
2022-10-02T17:38:29.260Z,102533.28
2022-10-02T17:41:14.890Z,102527.25
2022-10-02T17:44:00.531Z,102529.47
2022-10-02T17:46:55.194Z,102531.72
2022-10-02T17:49:50.335Z,102530.88
2022-10-02T17:52:45.547Z,102542.88
2022-10-02T17:55:57.354Z,102539.59
2022-10-02T17:58:39.632Z,102541.28
2022-10-02T18:01:24.781Z,102538.88
2022-10-02T18:04:22.294Z,102539.41
2022-10-02T18:07:41.708Z,102552.09
2022-10-02T18:10:24.352Z,102560.31
2022-10-02T18:12:55.643Z,102562.38
2022-10-02T18:16:00.078Z,102561.69
2022-10-02T18:18:50.938Z,102556.19
2022-10-02T18:22:27.217Z,102564.75
2022-10-02T18:25:19.257Z,102566.13
2022-10-02T18:28:02.911Z,102563.84
2022-10-02T18:30:58.807Z,102566.94
2022-10-02T18:33:56.959Z,102564.50
2022-10-02T18:36:50.699Z,102554.72
2022-10-02T18:39:30.323Z,102559.34
2022-10-02T18:42:16.927Z,102563.81
2022-10-02T18:44:48.636Z,102563.66
2022-10-02T18:47:52.730Z,102576.34
2022-10-02T18:50:28.978Z,102572.44
2022-10-02T18:53:43.364Z,102581.34
2022-10-02T18:56:14.741Z,102586.00
2022-10-02T18:58:47.458Z,102589.59
2022-10-02T19:01:29.542Z,102584.94
2022-10-02T19:04:30.890Z,102586.66
2022-10-02T19:07:17.711Z,102591.31
2022-10-02T19:09:44.755Z,102592.16
2022-10-02T19:12:23.462Z,102584.94
2022-10-02T19:14:56.175Z,102596.81
2022-10-02T19:17:24.184Z,102594.22
2022-10-02T19:19:51.281Z,102605.22
2022-10-02T19:22:26.371Z,102608.97
2022-10-02T19:24:58.038Z,102610.16
2022-10-02T19:27:31.278Z,102604.81
2022-10-02T19:30:03.971Z,102615.81
2022-10-02T19:32:32.637Z,102615.13
2022-10-02T19:35:05.629Z,102607.91
2022-10-02T19:37:34.963Z,102608.91
2022-10-02T19:40:04.070Z,102604.44
2022-10-02T19:42:39.516Z,102607.19
2022-10-02T19:45:22.836Z,102607.19
2022-10-02T19:47:57.365Z,102614.41
2022-10-02T19:51:12.159Z,102608.91
2022-10-02T19:53:50.830Z,102606.34
2022-10-02T19:56:32.079Z,102610.09
2022-10-02T19:59:11.448Z,102621.25
2022-10-02T20:01:43.919Z,102611.47
2022-10-02T20:04:17.670Z,102612.63
2022-10-02T20:06:53.084Z,102615.88
2022-10-02T20:09:34.264Z,102631.50
2022-10-02T20:12:06.622Z,102632.34
2022-10-02T20:14:42.371Z,102629.44
2022-10-02T20:17:10.939Z,102633.19
2022-10-02T20:19:43.830Z,102629.44
2022-10-02T20:22:24.172Z,102634.94
2022-10-02T20:25:02.220Z,102635.94
2022-10-02T20:27:38.903Z,102643.31
2022-10-02T20:30:17.306Z,102628.22
2022-10-02T20:32:53.214Z,102609.50
2022-10-02T20:35:37.672Z,102618.91
2022-10-02T20:38:15.677Z,102627.63
2022-10-02T20:40:48.430Z,102619.84
2022-10-02T20:43:20.202Z,102615.56
2022-10-02T20:45:58.658Z,102617.28
2022-10-02T20:49:07.631Z,102623.47
2022-10-02T20:51:43.360Z,102619.34
2022-10-02T20:54:17.949Z,102615.88
2022-10-02T20:57:25.104Z,102615.19
2022-10-02T21:00:17.059Z,102617.94
2022-10-02T21:03:22.348Z,102624.28
2022-10-02T21:06:22.100Z,102621.19
2022-10-02T21:09:04.000Z,102617.44
2022-10-02T21:12:27.689Z,102612.81
2022-10-02T21:15:12.949Z,102619.34
2022-10-02T21:17:58.268Z,102620.69
2022-10-02T21:20:49.338Z,102621.69
2022-10-02T21:23:36.333Z,102631.25
2022-10-02T21:26:27.134Z,102619.59
2022-10-02T21:29:12.622Z,102621.63
2022-10-02T21:31:48.365Z,102619.78
2022-10-02T21:34:41.792Z,102622.66
2022-10-02T21:37:36.023Z,102626.59
2022-10-02T21:43:19.255Z,102612.00
2022-10-02T21:46:18.956Z,102616.81
2022-10-02T21:49:27.352Z,102624.88
2022-10-02T21:52:09.547Z,102623.13
2022-10-02T21:55:05.909Z,102617.81
2022-10-02T21:58:17.294Z,102619.84
2022-10-02T22:01:18.321Z,102611.59
2022-10-02T22:04:03.565Z,102601.69
2022-10-02T22:06:39.689Z,102610.59
2022-10-02T22:09:23.278Z,102616.81
2022-10-02T22:12:01.146Z,102609.41
2022-10-02T22:14:33.649Z,102608.56
2022-10-02T22:17:12.340Z,102608.56
2022-10-02T22:20:00.122Z,102609.03
2022-10-02T22:22:43.297Z,102602.31
2022-10-02T22:25:37.677Z,102599.19
2022-10-02T22:28:20.681Z,102593.16
2022-10-02T22:30:50.280Z,102596.91
2022-10-02T22:33:55.348Z,102596.38
2022-10-02T22:36:27.894Z,102602.19
2022-10-02T22:39:15.717Z,102599.59
2022-10-02T22:42:20.684Z,102586.03
2022-10-02T22:45:01.917Z,102575.06
2022-10-02T22:48:14.024Z,102578.69
2022-10-02T22:51:23.863Z,102567.72
2022-10-02T22:54:59.178Z,102560.50
2022-10-02T23:02:24.332Z,102559.09
2022-10-02T23:05:45.972Z,102562.00
2022-10-02T23:09:17.571Z,102550.34
2022-10-02T23:15:49.930Z,102551.53
2022-10-02T23:18:58.175Z,102545.34
2022-10-02T23:21:31.532Z,102539.00
2022-10-02T23:24:18.520Z,102542.75
2022-10-02T23:27:17.627Z,102535.38
2022-10-02T23:29:50.933Z,102534.53
2022-10-02T23:32:38.382Z,102532.81
2022-10-02T23:35:31.891Z,102531.94
2022-10-02T23:38:24.500Z,102531.06
2022-10-02T23:41:37.234Z,102538.28
2022-10-02T23:44:17.479Z,102536.25
2022-10-02T23:47:09.093Z,102537.28
2022-10-02T23:49:41.576Z,102541.75
2022-10-02T23:52:14.534Z,102531.78
2022-10-02T23:54:56.470Z,102534.53
2022-10-02T23:57:41.242Z,102532.63
